createdAt,value
2018-06-24T00:01:13.752Z,12.70
2018-06-24T00:03:42.796Z,12.60
2018-06-24T00:06:11.851Z,12.60
2018-06-24T00:08:41.187Z,12.40
2018-06-24T00:11:10.512Z,12.40
2018-06-24T00:13:39.801Z,12.40
2018-06-24T00:16:08.896Z,12.30
2018-06-24T00:18:37.940Z,12.30
2018-06-24T00:21:07.009Z,12.20
2018-06-24T00:23:36.051Z,12.00
2018-06-24T00:28:33.817Z,11.90
2018-06-24T00:31:02.912Z,11.90
2018-06-24T00:33:31.959Z,11.90
2018-06-24T00:36:01.023Z,11.90
2018-06-24T00:40:59.447Z,11.90
2018-06-24T00:43:28.493Z,11.90
2018-06-24T00:45:57.556Z,11.90
2018-06-24T00:48:26.604Z,11.90
2018-06-24T00:53:24.375Z,11.80
2018-06-24T00:55:53.424Z,11.80
2018-06-24T00:58:22.545Z,11.90
2018-06-24T01:00:51.596Z,11.90
2018-06-24T01:03:20.664Z,11.90
2018-06-24T01:08:18.409Z,11.80
2018-06-24T01:10:47.473Z,11.80
2018-06-24T01:13:16.539Z,11.70
2018-06-24T01:15:45.587Z,11.70
2018-06-24T01:18:14.655Z,11.60
2018-06-24T01:20:43.702Z,11.70
2018-06-24T01:23:12.945Z,11.70
2018-06-24T01:25:41.988Z,11.70
2018-06-24T01:28:11.052Z,11.70
2018-06-24T01:30:40.132Z,11.70
2018-06-24T01:33:09.327Z,11.70
2018-06-24T01:35:38.368Z,11.70
2018-06-24T01:38:07.535Z,11.70
2018-06-24T01:40:36.588Z,11.70
2018-06-24T01:43:05.656Z,11.70
2018-06-24T01:45:34.705Z,11.80
2018-06-24T01:50:32.479Z,11.80
2018-06-24T01:55:30.272Z,11.80
2018-06-24T02:02:56.828Z,11.90
2018-06-24T02:05:25.884Z,11.90
2018-06-24T02:07:54.964Z,11.90
2018-06-24T02:10:24.016Z,11.90
2018-06-24T02:15:21.791Z,11.90
2018-06-24T02:17:50.864Z,11.90
2018-06-24T02:20:19.989Z,12.00
2018-06-24T02:22:49.063Z,12.00
2018-06-24T02:25:18.124Z,12.00
2018-06-24T02:27:47.208Z,12.00
2018-06-24T02:30:16.266Z,12.00
2018-06-24T02:32:45.348Z,12.10
2018-06-24T02:35:14.408Z,12.10
2018-06-24T02:37:43.475Z,12.10
2018-06-24T02:42:41.696Z,12.10
2018-06-24T02:45:10.751Z,12.20
2018-06-24T02:47:39.831Z,12.20
2018-06-24T02:50:08.884Z,12.20
2018-06-24T02:52:37.968Z,12.20
2018-06-24T02:55:07.027Z,12.20
2018-06-24T02:57:36.104Z,12.20
2018-06-24T03:00:05.173Z,12.20
2018-06-24T03:02:34.248Z,12.20
2018-06-24T03:05:03.303Z,12.30
2018-06-24T03:07:32.384Z,12.30
2018-06-24T03:10:01.440Z,12.20
2018-06-24T03:12:30.536Z,12.30
2018-06-24T03:14:59.588Z,12.30
2018-06-24T03:17:28.668Z,12.30
2018-06-24T03:19:57.777Z,12.30
2018-06-24T03:22:26.847Z,12.30
2018-06-24T03:24:55.908Z,12.30
2018-06-24T03:29:53.664Z,12.40
2018-06-24T03:32:22.745Z,12.40
2018-06-24T03:34:51.795Z,12.40
2018-06-24T03:37:20.864Z,12.50
2018-06-24T03:42:18.648Z,12.50
2018-06-24T03:47:16.452Z,12.50
2018-06-24T03:49:45.508Z,12.50
2018-06-24T03:52:14.565Z,12.50
2018-06-24T03:54:43.646Z,12.50
2018-06-24T03:57:12.700Z,12.50
2018-06-24T03:59:41.883Z,12.50
2018-06-24T04:02:11.152Z,12.60
2018-06-24T04:04:40.272Z,12.60
2018-06-24T04:07:09.305Z,12.70
2018-06-24T04:14:35.796Z,12.70
2018-06-24T04:17:04.868Z,12.70
2018-06-24T04:19:33.944Z,12.70
2018-06-24T04:22:03.012Z,12.70
2018-06-24T04:24:32.092Z,12.60
2018-06-24T04:27:01.148Z,12.60
2018-06-24T04:29:30.228Z,12.60
2018-06-24T04:31:59.288Z,12.60
2018-06-24T04:34:28.356Z,12.50
2018-06-24T04:39:26.127Z,12.60
2018-06-24T04:44:23.880Z,12.60
2018-06-24T04:46:52.945Z,12.60
2018-06-24T04:49:22.028Z,12.70
2018-06-24T04:51:51.084Z,12.70
2018-06-24T04:54:20.160Z,12.70
2018-06-24T04:56:49.216Z,12.70
2018-06-24T04:59:18.287Z,12.80
2018-06-24T05:04:16.071Z,12.90
2018-06-24T05:09:13.851Z,13.00
2018-06-24T05:11:42.928Z,13.00
2018-06-24T05:14:12.004Z,12.90
2018-06-24T05:16:41.052Z,12.90
2018-06-24T05:21:38.835Z,12.90
2018-06-24T05:24:07.911Z,13.00
2018-06-24T05:26:36.962Z,13.10
2018-06-24T05:29:06.255Z,13.10
2018-06-24T05:31:35.312Z,13.30
2018-06-24T05:39:01.772Z,13.60
2018-06-24T05:41:30.833Z,13.70
2018-06-24T05:43:59.912Z,13.90
2018-06-24T05:46:28.968Z,14.00
2018-06-24T05:48:59.057Z,14.10
2018-06-24T05:51:28.114Z,14.10
2018-06-24T05:53:57.191Z,14.00
2018-06-24T05:58:55.432Z,14.00
2018-06-24T06:01:24.479Z,14.20
2018-06-24T06:06:22.392Z,14.00
2018-06-24T06:08:51.564Z,13.90
2018-06-24T06:13:49.339Z,14.20
2018-06-24T06:16:18.396Z,14.40
2018-06-24T06:18:47.463Z,14.50
2018-06-24T06:21:16.515Z,14.60
2018-06-24T06:23:45.629Z,14.50
2018-06-24T06:26:14.676Z,14.60
2018-06-24T06:28:43.766Z,14.80
2018-06-24T06:31:12.823Z,14.70
2018-06-24T06:36:10.608Z,14.70
2018-06-24T06:41:08.963Z,14.90
2018-06-24T06:43:38.048Z,14.90
2018-06-24T06:46:09.988Z,14.80
2018-06-24T06:48:39.420Z,14.80
2018-06-24T06:51:09.738Z,14.80
2018-06-24T06:53:38.827Z,14.80
2018-06-24T06:56:08.236Z,15.10
2018-06-24T06:58:37.923Z,15.20
2018-06-24T07:01:07.000Z,15.30
2018-06-24T07:08:34.064Z,15.50
2018-06-24T07:11:03.148Z,15.90
2018-06-24T07:13:32.244Z,16.00
2018-06-24T07:16:01.320Z,15.80
2018-06-24T07:18:30.372Z,15.70
2018-06-24T07:20:59.547Z,15.90
2018-06-24T07:23:28.599Z,15.90
2018-06-24T07:25:58.107Z,16.00
2018-06-24T07:28:27.380Z,15.90
2018-06-24T07:30:56.461Z,15.70
2018-06-24T07:35:54.252Z,15.70
2018-06-24T07:38:24.036Z,15.80
2018-06-24T07:40:53.108Z,15.90
2018-06-24T07:43:22.159Z,16.20
2018-06-24T07:45:51.233Z,16.40
2018-06-24T07:50:48.990Z,16.50
2018-06-24T07:53:18.081Z,16.50
2018-06-24T07:55:47.272Z,16.70
2018-06-24T07:58:16.336Z,16.70
2018-06-24T08:00:45.458Z,16.80
2018-06-24T08:03:14.622Z,16.70
2018-06-24T08:05:43.700Z,16.50
2018-06-24T08:10:41.440Z,16.30
2018-06-24T08:13:10.520Z,16.30
2018-06-24T08:15:39.592Z,16.20
2018-06-24T08:18:08.644Z,16.60
2018-06-24T08:20:37.724Z,16.90
2018-06-24T08:23:06.959Z,17.10
2018-06-24T08:30:33.471Z,17.00
2018-06-24T08:33:02.545Z,17.10
2018-06-24T08:35:31.711Z,17.20
2018-06-24T08:38:00.764Z,17.40
2018-06-24T08:40:29.840Z,17.10
2018-06-24T08:42:58.887Z,17.20
2018-06-24T08:45:27.991Z,17.30
2018-06-24T08:47:57.136Z,17.30
2018-06-24T08:50:26.212Z,17.30
2018-06-24T08:55:23.948Z,16.50
2018-06-24T08:57:53.036Z,16.30
2018-06-24T09:00:22.111Z,16.40
2018-06-24T09:02:51.171Z,16.50
2018-06-24T09:07:49.016Z,16.90
2018-06-24T09:10:18.096Z,16.90
2018-06-24T09:12:47.227Z,16.90
2018-06-24T09:15:16.288Z,16.40
2018-06-24T09:17:45.319Z,16.30
2018-06-24T09:20:14.380Z,16.30
2018-06-24T09:22:43.419Z,16.40
2018-06-24T09:25:12.505Z,16.40
2018-06-24T09:27:41.570Z,16.00
2018-06-24T09:30:10.669Z,15.90
2018-06-24T09:32:39.703Z,15.90
2018-06-24T09:35:08.768Z,15.90
2018-06-24T09:37:37.891Z,15.80
2018-06-24T09:40:06.960Z,15.80
2018-06-24T09:42:35.992Z,15.90
2018-06-24T09:45:05.072Z,16.10
2018-06-24T09:47:34.112Z,16.40
2018-06-24T09:50:03.171Z,16.50
2018-06-24T09:52:32.344Z,16.80
2018-06-24T09:55:01.404Z,17.00
2018-06-24T09:57:30.476Z,17.20
2018-06-24T10:02:28.203Z,17.70
2018-06-24T10:04:57.235Z,17.60
2018-06-24T10:07:26.300Z,17.40
2018-06-24T10:09:55.336Z,17.20
2018-06-24T10:12:24.415Z,17.20
2018-06-24T10:14:53.454Z,17.10
2018-06-24T10:17:22.515Z,17.00
2018-06-24T10:19:51.547Z,16.60
2018-06-24T10:22:20.784Z,16.40
2018-06-24T10:24:49.857Z,16.20
2018-06-24T10:27:18.908Z,16.00
2018-06-24T10:29:47.944Z,15.90
2018-06-24T10:32:17.003Z,15.90
2018-06-24T10:34:46.035Z,16.00
2018-06-24T10:37:15.155Z,16.10
2018-06-24T10:39:44.192Z,16.20
2018-06-24T10:42:13.248Z,16.60
2018-06-24T10:44:42.287Z,16.90
2018-06-24T10:47:11.372Z,16.90
2018-06-24T10:49:40.451Z,16.80
2018-06-24T10:52:09.743Z,17.00
2018-06-24T10:54:38.780Z,17.10
2018-06-24T11:02:05.555Z,17.10
2018-06-24T11:04:34.556Z,17.00
2018-06-24T11:12:01.016Z,15.80
2018-06-24T11:14:30.056Z,15.50
2018-06-24T11:16:59.116Z,15.50
2018-06-24T11:21:56.956Z,15.80
2018-06-24T11:24:26.433Z,15.90
2018-06-24T11:26:55.487Z,16.10
2018-06-24T11:29:24.525Z,16.40
2018-06-24T11:31:53.585Z,16.80
2018-06-24T11:34:22.615Z,17.30
2018-06-24T11:36:51.699Z,17.60
2018-06-24T11:39:20.839Z,17.30
2018-06-24T11:41:49.888Z,17.00
2018-06-24T11:44:18.923Z,16.90
2018-06-24T11:46:47.975Z,16.90
2018-06-24T11:49:17.036Z,16.90
2018-06-24T11:51:46.091Z,17.30
2018-06-24T11:54:15.152Z,17.50
2018-06-24T11:56:44.213Z,17.60
2018-06-24T11:59:13.259Z,17.90
2018-06-24T12:01:42.320Z,17.70
2018-06-24T12:04:11.425Z,17.60
2018-06-24T12:06:40.439Z,17.50
2018-06-24T12:11:39.984Z,17.00
2018-06-24T12:14:09.055Z,16.80
2018-06-24T12:21:35.500Z,16.70
2018-06-24T12:24:04.836Z,16.90
2018-06-24T12:26:33.888Z,16.90
2018-06-24T12:29:02.939Z,16.90
2018-06-24T12:31:32.016Z,16.60
2018-06-24T12:36:36.195Z,16.20
2018-06-24T12:39:09.472Z,16.10
2018-06-24T12:41:38.796Z,16.00
2018-06-24T12:44:08.692Z,15.90
2018-06-24T12:46:37.914Z,15.80
2018-06-24T12:49:07.911Z,15.80
2018-06-24T12:51:38.048Z,15.70
2018-06-24T12:54:07.534Z,15.60
2018-06-24T12:56:36.588Z,15.60
2018-06-24T12:59:05.812Z,15.50
2018-06-24T13:01:34.732Z,15.30
2018-06-24T13:04:03.840Z,15.10
2018-06-24T13:06:32.881Z,15.00
2018-06-24T13:11:31.371Z,14.80
2018-06-24T13:14:00.426Z,14.70
2018-06-24T13:16:29.476Z,14.80
2018-06-24T13:21:27.232Z,15.30
2018-06-24T13:23:56.292Z,15.50
2018-06-24T13:26:25.328Z,15.90
2018-06-24T13:28:54.383Z,16.20
2018-06-24T13:31:23.506Z,16.50
2018-06-24T13:33:52.565Z,16.70
2018-06-24T13:36:21.596Z,16.80
2018-06-24T13:38:50.697Z,17.00
2018-06-24T13:41:19.732Z,17.20
2018-06-24T13:43:48.783Z,17.40
2018-06-24T13:46:17.819Z,17.50
2018-06-24T13:48:46.868Z,17.60
2018-06-24T13:51:15.904Z,17.60
2018-06-24T13:56:13.628Z,17.60
2018-06-24T13:58:42.684Z,17.60
2018-06-24T14:03:40.444Z,17.40
2018-06-24T14:06:09.520Z,17.20
2018-06-24T14:08:38.564Z,17.10
2018-06-24T14:13:36.323Z,16.80
2018-06-24T14:16:05.810Z,16.60
2018-06-24T14:18:34.879Z,16.40
2018-06-24T14:21:03.931Z,15.90
2018-06-24T14:26:01.715Z,15.40
2018-06-24T14:31:00.362Z,15.10
2018-06-24T14:33:29.436Z,15.10
2018-06-24T14:35:58.491Z,15.00
2018-06-24T14:38:27.572Z,15.10
2018-06-24T14:40:56.640Z,15.10
2018-06-24T14:43:25.735Z,15.20
2018-06-24T14:45:54.784Z,15.40
2018-06-24T14:48:23.856Z,15.70
2018-06-24T14:50:52.911Z,15.90
2018-06-24T14:53:21.987Z,16.20
2018-06-24T14:58:19.732Z,16.10
2018-06-24T15:00:48.951Z,16.20
2018-06-24T15:03:18.461Z,16.20
2018-06-24T15:05:47.728Z,16.40
2018-06-24T15:08:16.799Z,16.50
2018-06-24T15:10:45.852Z,16.40
2018-06-24T15:13:14.935Z,16.30
2018-06-24T15:15:44.000Z,16.40
2018-06-24T15:18:13.057Z,16.20
2018-06-24T15:23:10.801Z,16.40
2018-06-24T15:25:39.861Z,16.40
2018-06-24T15:28:08.917Z,16.50
2018-06-24T15:30:37.956Z,16.40
2018-06-24T15:33:07.019Z,16.30
2018-06-24T15:38:04.772Z,16.10
2018-06-24T15:40:33.809Z,16.10
2018-06-24T15:43:02.914Z,16.00
2018-06-24T15:45:31.954Z,16.00
2018-06-24T15:48:01.007Z,16.20
2018-06-24T15:50:30.052Z,16.20
2018-06-24T15:52:59.108Z,16.20
2018-06-24T15:55:28.147Z,16.10
2018-06-24T15:57:57.231Z,16.00
2018-06-24T16:00:26.263Z,16.00
2018-06-24T16:05:23.992Z,15.80
2018-06-24T16:07:53.043Z,15.90
2018-06-24T16:17:48.948Z,16.10
2018-06-24T16:20:18.057Z,16.10
2018-06-24T16:22:47.108Z,16.10
2018-06-24T16:30:14.012Z,15.80
2018-06-24T16:32:43.104Z,15.80
2018-06-24T16:35:12.183Z,15.70
2018-06-24T16:40:10.271Z,15.60
2018-06-24T16:45:08.017Z,15.40
2018-06-24T16:47:37.072Z,15.40
2018-06-24T16:50:06.244Z,15.40
2018-06-24T16:55:05.092Z,15.50
2018-06-24T16:57:34.144Z,15.50
2018-06-24T17:00:04.252Z,15.40
2018-06-24T17:02:33.315Z,15.30
2018-06-24T17:05:02.432Z,15.30
2018-06-24T17:07:31.483Z,15.20
2018-06-24T17:10:00.716Z,15.10
2018-06-24T17:12:29.897Z,15.10
2018-06-24T17:14:59.064Z,15.20
2018-06-24T17:22:25.512Z,15.30
2018-06-24T17:24:54.586Z,15.50
2018-06-24T17:27:23.644Z,15.60
2018-06-24T17:29:52.716Z,15.60
2018-06-24T17:34:57.003Z,15.50
2018-06-24T17:37:26.049Z,15.40
2018-06-24T17:47:21.175Z,15.00
2018-06-24T17:49:50.303Z,14.90
2018-06-24T17:57:16.769Z,14.90
2018-06-24T18:02:14.684Z,14.70
2018-06-24T18:04:43.763Z,14.70
2018-06-24T18:07:12.824Z,14.70
2018-06-24T18:09:41.904Z,14.70
2018-06-24T18:12:11.005Z,14.70
2018-06-24T18:14:40.668Z,14.60
2018-06-24T18:17:09.735Z,14.60
2018-06-24T18:22:07.560Z,14.50
2018-06-24T18:24:37.096Z,14.50
2018-06-24T18:27:06.676Z,14.50
2018-06-24T18:29:35.760Z,14.50
2018-06-24T18:32:04.821Z,14.40
2018-06-24T18:34:34.006Z,14.40
2018-06-24T18:37:03.088Z,14.20
2018-06-24T18:39:32.297Z,14.20
2018-06-24T18:42:01.360Z,14.00
2018-06-24T18:44:30.444Z,14.00
2018-06-24T18:46:59.500Z,13.90
2018-06-24T18:49:28.572Z,13.80
2018-06-24T18:51:57.643Z,13.60
2018-06-24T18:54:26.904Z,13.50
2018-06-24T18:56:56.062Z,13.40
2018-06-24T18:59:25.174Z,13.30
2018-06-24T19:01:54.224Z,13.30
2018-06-24T19:04:23.280Z,13.30
2018-06-24T19:06:52.355Z,13.20
2018-06-24T19:09:21.453Z,13.20
2018-06-24T19:11:50.534Z,13.20
2018-06-24T19:14:19.567Z,13.20
2018-06-24T19:19:17.358Z,12.90
2018-06-24T19:21:46.433Z,12.80
2018-06-24T19:24:15.499Z,12.80
2018-06-24T19:26:44.569Z,12.70
2018-06-24T19:29:13.627Z,12.70
2018-06-24T19:31:42.688Z,12.60
2018-06-24T19:34:11.724Z,12.60
2018-06-24T19:36:40.812Z,12.70
2018-06-24T19:39:11.005Z,12.60
2018-06-24T19:41:40.624Z,12.60
2018-06-24T19:44:09.816Z,12.60
2018-06-24T19:46:38.879Z,12.70
2018-06-24T19:49:07.915Z,12.70
2018-06-24T19:51:36.980Z,12.60
2018-06-24T19:54:06.271Z,12.60
2018-06-24T19:56:35.344Z,12.60
2018-06-24T19:59:04.503Z,12.60
2018-06-24T20:01:33.568Z,12.60
2018-06-24T20:04:02.599Z,12.60
2018-06-24T20:06:31.813Z,12.60
2018-06-24T20:09:00.855Z,12.60
2018-06-24T20:11:30.038Z,12.60
2018-06-24T20:16:27.855Z,12.70
2018-06-24T20:18:56.916Z,12.70
2018-06-24T20:21:25.990Z,12.70
2018-06-24T20:23:55.608Z,12.70
2018-06-24T20:28:53.644Z,12.70
2018-06-24T20:31:22.728Z,12.70
2018-06-24T20:33:51.804Z,12.70
2018-06-24T20:38:49.624Z,12.80
2018-06-24T20:41:18.776Z,12.70
2018-06-24T20:43:47.827Z,12.80
2018-06-24T20:46:17.864Z,12.80
2018-06-24T20:48:47.155Z,12.80
2018-06-24T20:51:16.227Z,12.80
2018-06-24T20:53:45.563Z,12.80
2018-06-24T20:56:15.184Z,12.80
2018-06-24T20:58:44.244Z,12.80
2018-06-24T21:01:13.315Z,12.80
2018-06-24T21:03:42.376Z,12.90
2018-06-24T21:06:11.481Z,12.80
2018-06-24T21:11:09.835Z,12.80
2018-06-24T21:13:38.887Z,12.80
2018-06-24T21:18:36.683Z,12.80
2018-06-24T21:21:05.753Z,12.80
2018-06-24T21:23:34.926Z,12.80
2018-06-24T21:26:04.436Z,12.90
2018-06-24T21:28:33.503Z,12.90
2018-06-24T21:31:02.580Z,12.90
2018-06-24T21:33:31.647Z,12.90
2018-06-24T21:38:29.536Z,13.00
2018-06-24T21:43:27.488Z,13.00
2018-06-24T21:45:56.536Z,13.00
2018-06-24T21:48:25.787Z,13.00
2018-06-24T21:50:54.887Z,13.00
2018-06-24T21:53:23.948Z,13.00
2018-06-24T21:55:53.024Z,13.00
2018-06-24T21:58:22.091Z,13.00
2018-06-24T22:00:51.159Z,13.00
2018-06-24T22:03:20.219Z,13.00
2018-06-24T22:05:49.295Z,13.00
2018-06-24T22:08:19.329Z,13.00
2018-06-24T22:10:48.380Z,13.00
2018-06-24T22:13:17.500Z,13.00
2018-06-24T22:15:46.547Z,13.00
2018-06-24T22:18:15.624Z,13.00
2018-06-24T22:20:44.720Z,13.00
2018-06-24T22:23:13.796Z,12.90
2018-06-24T22:28:11.660Z,12.90
2018-06-24T22:30:40.720Z,12.90
2018-06-24T22:33:09.833Z,12.80
2018-06-24T22:35:38.883Z,12.80
2018-06-24T22:38:07.956Z,12.80
2018-06-24T22:43:06.172Z,12.80
2018-06-24T22:45:35.228Z,12.80
2018-06-24T22:48:04.299Z,12.80
2018-06-24T22:50:33.356Z,12.80
2018-06-24T22:53:02.435Z,12.80
2018-06-24T22:58:00.219Z,12.80
2018-06-24T23:03:02.648Z,12.80
2018-06-24T23:08:00.187Z,12.80
2018-06-24T23:12:57.944Z,12.70
2018-06-24T23:15:26.981Z,12.80
2018-06-24T23:17:56.048Z,12.80
2018-06-24T23:20:25.091Z,12.80
2018-06-24T23:22:54.151Z,12.80
2018-06-24T23:25:23.188Z,12.80
2018-06-24T23:27:52.242Z,12.80
2018-06-24T23:30:21.284Z,12.80
2018-06-24T23:32:50.344Z,12.80
2018-06-24T23:37:48.096Z,12.80
2018-06-24T23:40:17.124Z,12.80
2018-06-24T23:45:14.880Z,12.80
2018-06-24T23:47:43.935Z,12.80
2018-06-24T23:50:12.970Z,12.80
2018-06-24T23:52:42.032Z,12.70
2018-06-24T23:55:11.149Z,12.80
2018-06-24T23:57:40.212Z,12.80
